• Join FlightAware (Why Join?)
  • Login
  • US Flag 
01:47AM EDT


 

Airport Tracker/Info


-or-


 

Live Flight TrackerFlight Track Log ✈ FLG3956 ✈ 21-Apr-2013 ✈ KIAD - KDTW

Flight Track Log - Related Links

Times and Time Zones

All times are in EDT time to prevent confusion due to time zone crossing. See the FLG3956 flight status page for this flight to view local times or setup timezone preferences in your user account.

Time Position Orientation Groundspeed Altitude Reporting Facility
EDT Latitude Longitude Course Direction KTS MPH feet Rate Location/Type
07:27PM 38.9500 -77.5333 288° West 194 223 2,900  Level Potomac TRACON
07:29PM 39.2774 -77.5373 344° North  Level FlightAware Approximate
07:29PM 39.0567 -77.6311 325° Northwest 261 300 8,100  Level Washington Center
07:30PM 39.3642 -77.5699 344° North  Level FlightAware Approximate
07:30PM 39.1269 -77.6653 339° North 261 300 10,500  Level Washington Center
07:31PM 39.4509 -77.5871 288° West  Level FlightAware Approximate
07:31PM 39.2075 -77.7025 340° North 279 321 12,500  Level Washington Center
07:32PM 39.4788 -77.6984 288° West  Level FlightAware Approximate
07:32PM 39.2964 -77.7453 340° North 308 354 14,500  Level Washington Center
07:33PM 39.3875 -77.7881 340° North 327 376 16,400 1,440 Climbing Washington Center
07:35PM 39.5606 -77.9200 330° Northwest 391 450 18,900 1,320 Climbing Cleveland Center
07:36PM 39.5969 -78.0425 291° West 354 407 20,400 1,380 Climbing Cleveland Center
07:37PM 39.6350 -78.1706 291° West 359 413 21,700 1,200 Climbing Cleveland Center
07:38PM 39.6711 -78.2986 290° West 372 428 22,900 1,200 Climbing Cleveland Center
07:39PM 39.7092 -78.4269 291° West 382 440 24,100 1,080 Climbing Cleveland Center
07:40PM 39.7489 -78.5553 292° West 387 445 25,100 900 Climbing Cleveland Center
07:41PM 39.7911 -78.7025 291° West 387 445 25,900 960 Climbing Cleveland Center
07:42PM 39.8200 -78.8181 288° West 387 445 27,100 1,020 Climbing Cleveland Center
07:43PM 39.8575 -78.9497 290° West 387 445 28,000 780 Climbing Cleveland Center
07:44PM 39.8989 -79.0867 292° West 387 445 28,700 600 Climbing Cleveland Center
07:45PM 39.9381 -79.2183 291° West 392 451 29,300 600 Climbing Cleveland Center
07:46PM 40.0000 -79.3419 303° West 392 451 29,900 300 Climbing Cleveland Center
07:47PM 40.0617 -79.4656 303° West 403 464 30,000  Climbing Cleveland Center
07:48PM 40.1275 -79.5919 304° West 410 472 30,000  Level Cleveland Center
07:49PM 40.1911 -79.7217 303° West 415 478 30,000  Level Cleveland Center
07:50PM 40.2525 -79.8486 302° West 415 478 30,000  Level Cleveland Center
07:51PM 40.3158 -79.9758 303° West 415 478 30,000  Level Cleveland Center
07:52PM 40.3831 -80.1169 302° West 415 478 30,000  Level Cleveland Center
07:53PM 40.4481 -80.2503 303° West 420 483 30,000  Level Cleveland Center
07:54PM 40.5172 -80.3811 305° West 426 490 30,000  Level Cleveland Center
07:55PM 40.5800 -80.5119 302° West 431 496 30,000  Level Cleveland Center
07:56PM 40.6403 -80.6461 301° West 431 496 30,000  Level Cleveland Center
07:57PM 40.7111 -80.7775 305° West 431 496 30,000  Level Cleveland Center
07:58PM 40.7733 -80.9094 302° West 436 502 30,000  Level Cleveland Center
07:59PM 40.8397 -81.0469 303° West 436 502 30,000  Level Cleveland Center
08:00PM 40.9014 -81.1847 301° West 431 496 30,000  Level Cleveland Center
08:01PM 40.9572 -81.3033 302° West 431 496 30,000  Level Cleveland Center
08:02PM 41.0186 -81.4361 302° West 431 496 30,000  Level Cleveland Center
08:03PM 41.0822 -81.5692 302° West 431 496 30,000  Level Cleveland Center
08:04PM 41.1519 -81.7111 303° West 431 496 30,000 -660 Level Cleveland Center
08:05PM 41.2150 -81.8417 303° West 431 496 28,700 -1,800 Descending Cleveland Center
08:06PM 41.2739 -81.9756 300° West 431 496 26,400 -2,280 Descending Cleveland Center
08:07PM 41.3328 -82.1039 301° West 431 496 24,200 -2,220 Descending Cleveland Center
08:08PM 41.3958 -82.2244 305° West 406 467 22,000 -1,980 Descending Cleveland Center
08:09PM 41.4547 -82.3231 309° West 394 453 20,300 -1,860 Descending Cleveland Center
08:10PM 41.5217 -82.4358 308° West 386 444 18,300 -1,920 Descending Cleveland Center
08:10PM 41.5706 -82.5206 308° West 369 425 17,100 -1,620 Descending Cleveland Center
08:11PM 41.5825 -82.5375 313° West 371 427 16,700 -2,100 Descending Cleveland Center
08:11PM 41.6333 -82.6194 310° West 348 400 15,000 -2,100 Descending Cleveland Center
08:12PM 41.6414 -82.6364 302° West 353 406 14,600 -2,100 Descending Cleveland Center
08:12PM 41.7000 -82.7331 309° West 340 391 12,700 -1,440 Descending Cleveland Center
08:13PM 41.7628 -82.8269 312° West 339 390 12,000 -420 Descending Cleveland Center
08:14PM 41.8258 -82.9044 318° Northwest 335 386 12,000  Level Cleveland Center
08:15PM 41.8403 -82.9189 323° Northwest 337 388 12,000  Level Cleveland Center
08:15PM 41.8992 -82.9933 317° Northwest 330 380 12,000  Level Cleveland Center
08:17PM 41.9806 -83.0861 320° Northwest 331 381 12,000  Level Cleveland Center
08:17PM 42.0333 -83.1494 318° Northwest 332 382 12,000  Level Cleveland Center
08:18PM 42.0822 -83.2075 319° Northwest 245 282 12,000 -360 Level Cleveland Center
08:19PM 42.1006 -83.2167 340° North 294 338 11,600 -1,440 Descending Cleveland Center
08:19PM 42.1564 -83.2358 346° North 230 265 10,400 -1,560 Descending Cleveland Center
08:20PM 42.2156 -83.2103 18° North 227 261 8,800 -1,860 Descending Cleveland Center
08:22PM 42.2792 -83.1622 29° Northeast 234 269 6,500 -1,920 Descending Cleveland Center
08:22PM 42.3339 -83.1308 23° Northeast 241 277 5,000 -1,200 Descending Cleveland Center
08:24PM 42.3572 -83.2047 293° West 213 245 4,100 -840 Descending Cleveland Center